createdAt,value
2018-12-21T00:00:26.499Z,37.93
2018-12-21T00:02:54.695Z,38.53
2018-12-21T00:05:22.871Z,38.23
2018-12-21T00:07:51.025Z,37.83
2018-12-21T00:10:19.212Z,37.93
2018-12-21T00:12:47.391Z,38.30
2018-12-21T00:15:16.483Z,38.13
2018-12-21T00:17:44.674Z,37.93
2018-12-21T00:20:12.866Z,37.80
2018-12-21T00:22:41.245Z,38.43
2018-12-21T00:25:09.965Z,38.20
2018-12-21T00:27:38.899Z,38.33
2018-12-21T00:30:10.996Z,38.40
2018-12-21T00:32:44.684Z,37.93
2018-12-21T00:35:18.365Z,38.23
2018-12-21T00:37:52.045Z,38.43
2018-12-21T00:40:26.008Z,38.37
2018-12-21T00:43:07.211Z,38.27
2018-12-21T00:45:37.060Z,38.10
2018-12-21T00:48:05.825Z,38.03
2018-12-21T00:50:34.008Z,38.93
2018-12-21T00:53:02.158Z,38.00
2018-12-21T00:55:31.041Z,37.87
2018-12-21T00:57:59.233Z,38.03
2018-12-21T01:00:27.404Z,38.23
2018-12-21T01:02:55.558Z,37.50
2018-12-21T01:05:23.733Z,38.33
2018-12-21T01:07:51.908Z,38.73
2018-12-21T01:10:20.087Z,38.20
2018-12-21T01:12:48.272Z,38.13
2018-12-21T01:15:16.449Z,38.70
2018-12-21T01:17:44.734Z,38.40
2018-12-21T01:20:12.897Z,37.57
2018-12-21T01:22:41.121Z,38.47
2018-12-21T01:25:10.185Z,38.03
2018-12-21T01:27:38.375Z,38.23
2018-12-21T01:30:07.231Z,38.40
2018-12-21T01:32:35.397Z,38.27
2018-12-21T01:35:04.094Z,38.13
2018-12-21T01:37:33.913Z,38.07
2018-12-21T01:40:02.684Z,38.33
2018-12-21T01:42:30.871Z,38.67
2018-12-21T01:44:59.045Z,38.17
2018-12-21T01:47:27.214Z,38.07
2018-12-21T01:49:55.401Z,38.43
2018-12-21T01:52:23.574Z,38.30
2018-12-21T01:54:51.849Z,38.57
2018-12-21T01:57:20.037Z,39.20
2018-12-21T01:59:48.209Z,38.27
2018-12-21T02:02:16.369Z,37.93
2018-12-21T02:04:44.589Z,38.43
2018-12-21T02:07:12.804Z,38.67
2018-12-21T02:09:40.971Z,38.73
2018-12-21T02:12:09.162Z,38.77
2018-12-21T02:14:37.316Z,39.00
2018-12-21T02:17:05.459Z,37.93
2018-12-21T02:19:33.652Z,38.80
2018-12-21T02:22:01.822Z,38.27
2018-12-21T02:24:29.987Z,38.20
2018-12-21T02:26:58.156Z,38.70
2018-12-21T02:29:26.525Z,38.43
2018-12-21T02:31:55.666Z,38.63
2018-12-21T02:34:23.837Z,39.00
2018-12-21T02:36:51.999Z,37.93
2018-12-21T02:39:20.160Z,38.37
2018-12-21T02:41:49.149Z,38.17
2018-12-21T02:44:17.322Z,39.03
2018-12-21T02:46:45.465Z,37.83
2018-12-21T02:49:13.756Z,38.07
2018-12-21T02:51:41.923Z,37.53
2018-12-21T02:54:10.069Z,37.53
2018-12-21T02:56:38.251Z,37.37
2018-12-21T02:59:06.432Z,38.00
2018-12-21T03:01:34.604Z,37.87
2018-12-21T03:04:02.789Z,38.10
2018-12-21T03:06:30.958Z,38.37
2018-12-21T03:08:59.111Z,37.77
2018-12-21T03:11:27.288Z,37.83
2018-12-21T03:13:55.469Z,38.07
2018-12-21T03:16:23.673Z,38.40
2018-12-21T03:18:51.858Z,38.10
2018-12-21T03:21:20.002Z,38.40
2018-12-21T03:23:48.178Z,37.90
2018-12-21T03:26:16.349Z,38.10
2018-12-21T03:28:44.493Z,38.07
2018-12-21T03:31:12.644Z,37.87
2018-12-21T03:33:40.829Z,37.90
2018-12-21T03:36:08.994Z,38.27
2018-12-21T03:38:37.159Z,38.83
2018-12-21T03:41:05.946Z,38.33
2018-12-21T03:43:34.102Z,38.07
2018-12-21T03:46:02.254Z,38.20
2018-12-21T03:48:30.436Z,38.23
2018-12-21T03:50:58.590Z,38.40
2018-12-21T03:53:26.760Z,39.23
2018-12-21T03:55:54.948Z,38.73
2018-12-21T03:58:23.112Z,38.33
2018-12-21T04:00:51.265Z,38.37
2018-12-21T04:03:19.446Z,38.47
2018-12-21T04:05:47.593Z,38.20
2018-12-21T04:08:16.683Z,38.67
2018-12-21T04:10:44.858Z,38.50
2018-12-21T04:13:13.014Z,38.97
2018-12-21T04:15:41.478Z,38.23
2018-12-21T04:18:09.692Z,38.67
2018-12-21T04:20:37.850Z,38.73
2018-12-21T04:23:06.123Z,38.40
2018-12-21T04:25:34.332Z,38.50
2018-12-21T04:28:02.488Z,38.70
2018-12-21T04:30:30.655Z,38.67
2018-12-21T04:32:58.835Z,38.73
2018-12-21T04:35:26.992Z,38.53
2018-12-21T04:37:55.152Z,38.60
2018-12-21T04:40:23.344Z,38.90
2018-12-21T04:42:51.497Z,38.90
2018-12-21T04:45:19.661Z,39.20
2018-12-21T04:47:47.865Z,38.73
2018-12-21T04:50:16.043Z,38.67
2018-12-21T04:52:44.212Z,38.23
2018-12-21T04:55:12.413Z,38.50
2018-12-21T04:57:40.562Z,38.77
2018-12-21T05:00:08.949Z,38.60
2018-12-21T05:02:37.163Z,38.97
2018-12-21T05:05:05.481Z,38.47
2018-12-21T05:07:33.640Z,38.97
2018-12-21T05:10:01.821Z,38.97
2018-12-21T05:12:29.991Z,38.73
2018-12-21T05:14:58.143Z,38.53
2018-12-21T05:17:26.347Z,39.30
2018-12-21T05:19:54.494Z,38.77
2018-12-21T05:22:22.677Z,38.33
2018-12-21T05:24:50.874Z,39.00
2018-12-21T05:27:19.036Z,38.77
2018-12-21T05:29:47.197Z,39.07
2018-12-21T05:32:15.379Z,38.80
2018-12-21T05:34:43.532Z,39.07
2018-12-21T05:37:11.701Z,38.80
2018-12-21T05:39:39.883Z,38.70
2018-12-21T05:42:08.028Z,38.63
2018-12-21T05:44:36.185Z,38.97
2018-12-21T05:47:04.376Z,38.93
2018-12-21T05:49:32.565Z,39.77
2018-12-21T05:52:01.383Z,39.50
2018-12-21T05:54:29.588Z,39.70
2018-12-21T05:56:57.741Z,39.40
2018-12-21T05:59:25.931Z,39.47
2018-12-21T06:01:54.242Z,38.97
2018-12-21T06:04:22.419Z,39.40
2018-12-21T06:06:50.723Z,39.17
2018-12-21T06:09:18.899Z,39.60
2018-12-21T06:11:48.032Z,39.03
2018-12-21T06:14:16.200Z,39.77
2018-12-21T06:16:45.211Z,38.53
2018-12-21T06:19:13.390Z,38.57
2018-12-21T06:21:41.546Z,37.93
2018-12-21T06:24:09.711Z,39.07
2018-12-21T06:26:37.854Z,38.67
2018-12-21T06:29:06.021Z,37.93
2018-12-21T06:31:34.199Z,38.03
2018-12-21T06:34:02.377Z,38.40
2018-12-21T06:36:30.547Z,38.53
2018-12-21T06:38:58.740Z,38.60
2018-12-21T06:41:26.904Z,38.90
2018-12-21T06:43:55.052Z,38.10
2018-12-21T06:46:23.217Z,39.73
2018-12-21T06:48:51.961Z,38.30
2018-12-21T06:51:20.128Z,38.37
2018-12-21T06:53:48.298Z,38.20
2018-12-21T06:56:16.460Z,38.07
2018-12-21T06:58:44.735Z,38.20
2018-12-21T07:01:12.911Z,38.30
2018-12-21T07:03:41.092Z,38.33
2018-12-21T07:06:09.310Z,38.07
2018-12-21T07:08:37.605Z,38.60
2018-12-21T07:11:06.221Z,38.43
2018-12-21T07:13:34.396Z,38.60
2018-12-21T07:16:02.659Z,38.33
2018-12-21T07:18:31.163Z,38.03
2018-12-21T07:20:59.982Z,38.63
2018-12-21T07:23:28.164Z,38.33
2018-12-21T07:25:56.347Z,37.70
2018-12-21T07:28:24.501Z,38.27
2018-12-21T07:30:52.776Z,38.50
2018-12-21T07:33:20.977Z,38.37
2018-12-21T07:35:50.050Z,38.10
2018-12-21T07:38:18.322Z,37.60
2018-12-21T07:40:46.609Z,37.90
2018-12-21T07:43:14.988Z,38.53
2018-12-21T07:45:43.174Z,38.10
2018-12-21T07:48:11.342Z,37.87
2018-12-21T07:50:39.494Z,37.97
2018-12-21T07:53:09.038Z,38.23
2018-12-21T07:55:37.256Z,38.03
2018-12-21T07:58:05.534Z,38.17
2018-12-21T08:00:33.716Z,38.13
2018-12-21T08:03:02.413Z,38.07
2018-12-21T08:05:30.573Z,38.30
2018-12-21T08:07:58.796Z,37.93
2018-12-21T08:10:27.026Z,38.47
2018-12-21T08:12:55.202Z,37.80
2018-12-21T08:15:23.383Z,38.20
2018-12-21T08:17:51.547Z,37.80
2018-12-21T08:20:19.824Z,37.93
2018-12-21T08:22:48.124Z,37.90
2018-12-21T08:25:16.293Z,37.67
2018-12-21T08:27:44.478Z,38.33
2018-12-21T08:30:12.669Z,38.00
2018-12-21T08:32:40.832Z,37.93
2018-12-21T08:35:08.996Z,37.90
2018-12-21T08:37:37.186Z,38.37
2018-12-21T08:40:07.980Z,38.23
2018-12-21T08:42:36.179Z,38.33
2018-12-21T08:45:06.701Z,38.30
2018-12-21T08:47:34.860Z,38.00
2018-12-21T08:50:03.633Z,37.60
2018-12-21T08:52:31.811Z,38.43
2018-12-21T08:54:59.956Z,38.30
2018-12-21T08:57:28.135Z,37.83
2018-12-21T08:59:56.336Z,37.87
2018-12-21T09:02:24.615Z,38.40
2018-12-21T09:04:52.771Z,38.07
2018-12-21T09:07:20.972Z,38.07
2018-12-21T09:09:49.146Z,38.27
2018-12-21T09:12:17.322Z,38.90
2018-12-21T09:14:45.493Z,37.80
2018-12-21T09:17:13.656Z,38.13
2018-12-21T09:19:41.945Z,38.00
2018-12-21T09:22:10.135Z,38.20
2018-12-21T09:24:38.297Z,37.80
2018-12-21T09:27:06.491Z,38.53
2018-12-21T09:29:34.750Z,37.70
2018-12-21T09:32:05.244Z,37.80
2018-12-21T09:34:33.094Z,38.13
2018-12-21T09:37:02.093Z,38.13
2018-12-21T09:39:30.252Z,37.90
2018-12-21T09:41:58.419Z,38.07
2018-12-21T09:44:26.595Z,38.57
2018-12-21T09:46:54.765Z,37.70
2018-12-21T09:49:22.941Z,38.33
2018-12-21T09:51:51.331Z,38.40
2018-12-21T09:54:19.501Z,38.57
2018-12-21T09:56:47.665Z,39.07
2018-12-21T09:59:18.798Z,38.90
2018-12-21T10:01:46.972Z,38.23
2018-12-21T10:04:15.118Z,38.57
2018-12-21T10:06:43.318Z,38.23
2018-12-21T10:09:11.728Z,38.30
2018-12-21T10:11:39.880Z,38.77
2018-12-21T10:14:08.072Z,39.63
2018-12-21T10:16:36.221Z,38.87
2018-12-21T10:19:04.524Z,38.37
2018-12-21T10:21:32.697Z,38.70
2018-12-21T10:24:00.872Z,39.50
2018-12-21T10:26:29.036Z,38.10
2018-12-21T10:28:57.229Z,38.27
2018-12-21T10:31:25.414Z,38.53
2018-12-21T10:33:53.588Z,38.50
2018-12-21T10:36:21.788Z,38.67
2018-12-21T10:38:50.074Z,38.53
2018-12-21T10:41:18.247Z,38.57
2018-12-21T10:43:46.436Z,40.80
2018-12-21T10:46:14.615Z,39.13
2018-12-21T10:48:42.779Z,38.60
2018-12-21T10:51:11.636Z,38.63
2018-12-21T10:53:39.875Z,38.50
2018-12-21T10:56:08.952Z,38.00
2018-12-21T10:58:37.139Z,38.10
2018-12-21T11:01:05.312Z,38.60
2018-12-21T11:03:33.551Z,38.00
2018-12-21T11:06:01.743Z,38.83
2018-12-21T11:08:30.400Z,38.27
2018-12-21T11:10:58.554Z,38.30
2018-12-21T11:13:26.733Z,38.37
2018-12-21T11:15:54.906Z,38.13
2018-12-21T11:18:23.045Z,38.83
2018-12-21T11:20:51.241Z,38.80
2018-12-21T11:23:19.415Z,38.97
2018-12-21T11:25:47.611Z,38.80
2018-12-21T11:28:15.792Z,37.57
2018-12-21T11:30:44.039Z,37.93
2018-12-21T11:33:12.204Z,38.63
2018-12-21T11:35:40.409Z,38.53
2018-12-21T11:38:08.573Z,37.73
2018-12-21T11:40:36.757Z,38.97
2018-12-21T11:43:04.947Z,39.20
2018-12-21T11:45:33.142Z,38.83
2018-12-21T11:48:01.298Z,38.33
2018-12-21T11:50:29.663Z,38.63
2018-12-21T11:52:57.838Z,38.67
2018-12-21T11:55:26.012Z,38.47
2018-12-21T11:57:54.182Z,38.53
2018-12-21T12:00:22.356Z,38.50
2018-12-21T12:02:50.532Z,38.30
2018-12-21T12:05:18.745Z,38.70
2018-12-21T12:07:47.042Z,38.33
2018-12-21T12:10:15.207Z,38.03
2018-12-21T12:12:43.402Z,38.67
2018-12-21T12:15:11.576Z,38.00
2018-12-21T12:17:39.742Z,38.10
2018-12-21T12:20:08.034Z,37.60
2018-12-21T12:22:36.193Z,38.40
2018-12-21T12:25:05.682Z,37.77
2018-12-21T12:27:33.880Z,38.63
2018-12-21T12:30:02.052Z,38.77
2018-12-21T12:32:30.253Z,38.70
2018-12-21T12:34:58.674Z,37.87
2018-12-21T12:37:26.846Z,37.83
2018-12-21T12:39:55.015Z,38.20
2018-12-21T12:42:23.200Z,37.90
2018-12-21T12:44:51.354Z,37.77
2018-12-21T12:47:19.505Z,38.33
2018-12-21T12:49:47.715Z,37.00
2018-12-21T12:52:15.884Z,37.47
2018-12-21T12:54:44.038Z,37.67
2018-12-21T12:57:12.204Z,38.43
2018-12-21T12:59:40.399Z,38.20
2018-12-21T13:02:08.594Z,38.50
2018-12-21T13:04:36.780Z,38.77
2018-12-21T13:07:04.954Z,38.27
2018-12-21T13:09:33.135Z,37.77
2018-12-21T13:12:01.327Z,38.03
2018-12-21T13:14:30.413Z,38.33
2018-12-21T13:16:58.788Z,38.30
2018-12-21T13:19:26.957Z,37.60
2018-12-21T13:21:55.124Z,38.37
2018-12-21T13:24:23.301Z,38.00
2018-12-21T13:26:51.490Z,38.33
2018-12-21T13:29:19.657Z,37.93
2018-12-21T13:31:47.829Z,38.17
2018-12-21T13:34:16.004Z,38.27
2018-12-21T13:36:44.165Z,38.47
2018-12-21T13:39:13.061Z,38.03
2018-12-21T13:41:41.253Z,38.03
2018-12-21T13:44:09.416Z,38.50
2018-12-21T13:46:37.584Z,38.23
2018-12-21T13:49:05.779Z,38.40
2018-12-21T13:51:33.964Z,37.87
2018-12-21T13:54:02.115Z,38.23
2018-12-21T13:56:30.313Z,38.20
2018-12-21T13:58:58.479Z,38.43
2018-12-21T14:01:26.646Z,37.60
2018-12-21T14:03:54.875Z,37.70
2018-12-21T14:06:23.042Z,38.00
2018-12-21T14:08:51.195Z,37.83
2018-12-21T14:11:19.368Z,38.40
2018-12-21T14:13:47.509Z,37.77
2018-12-21T14:16:15.698Z,38.40
2018-12-21T14:18:43.873Z,38.10
2018-12-21T14:21:12.045Z,38.13
2018-12-21T14:23:40.203Z,37.50
2018-12-21T14:26:08.620Z,38.87
2018-12-21T14:28:36.805Z,38.03
2018-12-21T14:31:04.966Z,37.70
2018-12-21T14:33:33.166Z,37.60
2018-12-21T14:36:01.335Z,37.67
2018-12-21T14:38:29.507Z,38.23
2018-12-21T14:40:57.677Z,38.10
2018-12-21T14:43:25.847Z,38.77
2018-12-21T14:45:54.026Z,38.50
2018-12-21T14:48:22.203Z,38.23
2018-12-21T14:50:50.403Z,37.73
2018-12-21T14:53:18.559Z,37.97
2018-12-21T14:55:46.705Z,38.13
2018-12-21T14:58:14.877Z,38.33
2018-12-21T15:00:43.043Z,38.43
2018-12-21T15:03:11.197Z,38.13
2018-12-21T15:05:39.365Z,38.30
2018-12-21T15:08:07.534Z,37.57
2018-12-21T15:10:35.694Z,37.80
2018-12-21T15:13:03.991Z,37.90
2018-12-21T15:15:32.184Z,38.37
2018-12-21T15:18:00.352Z,39.00
2018-12-21T15:20:28.578Z,37.97
2018-12-21T15:22:56.729Z,38.30
2018-12-21T15:25:24.879Z,37.87
2018-12-21T15:27:53.049Z,37.90
2018-12-21T15:30:21.222Z,38.07
2018-12-21T15:32:49.407Z,40.13
2018-12-21T15:35:17.644Z,39.40
2018-12-21T15:37:46.461Z,37.70
2018-12-21T15:40:14.651Z,37.73
2018-12-21T15:42:42.858Z,38.20
2018-12-21T15:45:11.049Z,38.23
2018-12-21T15:47:40.247Z,38.37
2018-12-21T15:50:11.110Z,38.67
2018-12-21T15:52:39.310Z,38.57
2018-12-21T15:55:07.849Z,39.30
2018-12-21T15:57:36.380Z,41.58
2018-12-21T16:00:09.912Z,38.73
2018-12-21T16:02:38.626Z,39.00
2018-12-21T16:05:07.733Z,39.13
2018-12-21T16:07:36.003Z,38.37
2018-12-21T16:10:08.284Z,38.57
2018-12-21T16:12:36.470Z,38.37
2018-12-21T16:15:05.469Z,39.43
2018-12-21T16:17:33.640Z,39.20
2018-12-21T16:20:01.832Z,39.40
2018-12-21T16:22:29.999Z,38.50
2018-12-21T16:24:58.167Z,39.63
2018-12-21T16:27:26.405Z,39.03
2018-12-21T16:29:54.578Z,38.80
2018-12-21T16:32:22.767Z,38.93
2018-12-21T16:34:51.476Z,38.47
2018-12-21T16:37:19.640Z,38.47
2018-12-21T16:39:47.816Z,41.17
2018-12-21T16:42:16.009Z,39.07
2018-12-21T16:44:44.203Z,40.17
2018-12-21T16:47:12.353Z,39.43
2018-12-21T16:49:40.531Z,39.27
2018-12-21T16:52:09.512Z,40.13
2018-12-21T16:54:37.705Z,39.60
2018-12-21T16:57:05.899Z,40.13
2018-12-21T16:59:34.159Z,39.07
2018-12-21T17:02:03.537Z,40.40
2018-12-21T17:04:31.701Z,40.13
2018-12-21T17:06:59.869Z,40.13
2018-12-21T17:09:28.028Z,40.30
2018-12-21T17:11:56.351Z,39.40
2018-12-21T17:14:25.427Z,40.37
2018-12-21T17:16:53.585Z,39.60
2018-12-21T17:19:21.805Z,40.30
2018-12-21T17:21:50.012Z,39.97
2018-12-21T17:24:18.407Z,39.97
2018-12-21T17:26:46.725Z,39.33
2018-12-21T17:29:14.888Z,40.07
2018-12-21T17:31:43.036Z,40.13
2018-12-21T17:34:11.971Z,41.23
2018-12-21T17:36:40.876Z,40.53
2018-12-21T17:39:09.155Z,40.07
2018-12-21T17:41:37.349Z,40.80
2018-12-21T17:44:05.502Z,41.57
2018-12-21T17:46:33.645Z,41.57
2018-12-21T17:49:01.808Z,40.80
2018-12-21T17:51:30.088Z,41.07
2018-12-21T17:53:58.260Z,40.33
2018-12-21T17:56:29.986Z,40.03
2018-12-21T17:58:56.627Z,41.60
2018-12-21T18:01:25.115Z,41.10
2018-12-21T18:03:53.702Z,39.90
2018-12-21T18:06:21.876Z,41.07
2018-12-21T18:08:50.022Z,40.80
2018-12-21T18:11:18.208Z,41.10
2018-12-21T18:13:47.274Z,40.37
2018-12-21T18:16:15.429Z,41.13
2018-12-21T18:18:43.618Z,40.03
2018-12-21T18:21:12.744Z,40.87
2018-12-21T18:23:41.737Z,40.70
2018-12-21T18:26:09.963Z,41.20
2018-12-21T18:28:38.151Z,40.73
2018-12-21T18:31:11.939Z,41.67
2018-12-21T18:33:43.159Z,40.67
2018-12-21T18:36:11.334Z,41.10
2018-12-21T18:38:39.547Z,40.50
2018-12-21T18:41:08.564Z,40.70
2018-12-21T18:43:41.104Z,40.27
2018-12-21T18:46:09.310Z,40.20
2018-12-21T18:48:37.485Z,40.60
2018-12-21T18:51:05.777Z,39.87
2018-12-21T18:53:33.954Z,40.00
2018-12-21T18:56:02.218Z,40.13
2018-12-21T18:58:30.388Z,39.43
2018-12-21T19:00:58.576Z,40.17
2018-12-21T19:03:26.759Z,41.27
2018-12-21T19:05:54.935Z,40.07
2018-12-21T19:08:23.124Z,40.77
2018-12-21T19:10:51.330Z,40.83
2018-12-21T19:13:19.504Z,40.37
2018-12-21T19:15:47.703Z,41.10
2018-12-21T19:18:15.873Z,40.43
2018-12-21T19:20:44.048Z,40.60
2018-12-21T19:23:12.215Z,41.10
2018-12-21T19:25:40.356Z,40.67
2018-12-21T19:28:08.527Z,40.53
2018-12-21T19:30:36.701Z,40.03
2018-12-21T19:33:06.129Z,41.17
2018-12-21T19:35:34.606Z,40.53
2018-12-21T19:38:02.860Z,41.17
2018-12-21T19:40:31.035Z,40.03
2018-12-21T19:42:59.208Z,40.17
2018-12-21T19:45:27.359Z,40.23
2018-12-21T19:47:55.562Z,40.53
2018-12-21T19:50:23.784Z,39.60
2018-12-21T19:52:54.003Z,40.83
2018-12-21T19:55:30.997Z,40.20
2018-12-21T19:57:59.180Z,40.53
2018-12-21T20:00:27.333Z,40.13
2018-12-21T20:02:55.536Z,40.17
2018-12-21T20:05:23.700Z,40.70
2018-12-21T20:07:51.866Z,40.77
2018-12-21T20:10:20.164Z,40.67
2018-12-21T20:12:48.879Z,40.83
2018-12-21T20:15:17.056Z,40.53
2018-12-21T20:17:45.343Z,40.63
2018-12-21T20:20:13.556Z,40.97
2018-12-21T20:22:41.747Z,40.10
2018-12-21T20:25:10.056Z,40.83
2018-12-21T20:27:38.227Z,40.63
2018-12-21T20:30:11.320Z,40.57
2018-12-21T20:32:41.148Z,40.47
2018-12-21T20:35:10.252Z,40.10
2018-12-21T20:37:39.379Z,40.17
2018-12-21T20:40:12.202Z,41.53
2018-12-21T20:42:41.268Z,40.30
2018-12-21T20:45:11.522Z,39.80
2018-12-21T20:47:41.109Z,40.90
2018-12-21T20:50:13.503Z,40.10
2018-12-21T20:52:41.884Z,41.17
2018-12-21T20:55:10.648Z,41.67
2018-12-21T20:57:42.875Z,40.47
2018-12-21T21:00:15.919Z,39.27
2018-12-21T21:02:44.362Z,39.00
2018-12-21T21:05:12.807Z,38.90
2018-12-21T21:07:41.013Z,39.20
2018-12-21T21:10:12.134Z,39.43
2018-12-21T21:12:40.868Z,38.80
2018-12-21T21:15:12.165Z,38.40
2018-12-21T21:17:40.354Z,38.30
2018-12-21T21:20:14.220Z,38.33
2018-12-21T21:22:42.702Z,38.13
2018-12-21T21:25:11.667Z,37.73
2018-12-21T21:27:39.909Z,38.13
2018-12-21T21:30:14.212Z,38.53
2018-12-21T21:32:42.406Z,38.47
2018-12-21T21:35:10.565Z,38.90
2018-12-21T21:37:38.746Z,39.20
2018-12-21T21:40:15.728Z,38.20
2018-12-21T21:42:45.011Z,38.20
2018-12-21T21:45:13.162Z,38.57
2018-12-21T21:47:41.345Z,38.50
2018-12-21T21:50:10.503Z,39.07
2018-12-21T21:52:38.674Z,38.73
2018-12-21T21:55:07.482Z,38.43
2018-12-21T21:57:39.577Z,39.60
2018-12-21T22:00:11.177Z,38.80
2018-12-21T22:02:39.361Z,39.10
2018-12-21T22:05:07.527Z,39.27
2018-12-21T22:07:35.932Z,38.17
2018-12-21T22:10:07.918Z,38.07
2018-12-21T22:12:36.105Z,38.57
2018-12-21T22:15:05.706Z,38.17
2018-12-21T22:17:33.882Z,38.47
2018-12-21T22:20:02.203Z,38.40
2018-12-21T22:22:30.352Z,38.73
2018-12-21T22:24:58.515Z,37.87
2018-12-21T22:27:27.792Z,38.67
2018-12-21T22:29:56.065Z,39.00
2018-12-21T22:32:24.454Z,38.93
2018-12-21T22:34:52.639Z,37.63
2018-12-21T22:37:20.801Z,37.97
2018-12-21T22:39:48.959Z,39.23
2018-12-21T22:42:17.128Z,38.83
2018-12-21T22:44:45.318Z,38.07
2018-12-21T22:49:48.227Z,38.20
2018-12-21T22:52:16.489Z,38.43
2018-12-21T22:54:44.793Z,38.53
2018-12-21T22:57:12.978Z,38.03
2018-12-21T22:59:41.144Z,37.80
2018-12-21T23:02:09.406Z,38.27
2018-12-21T23:04:37.675Z,38.27
2018-12-21T23:07:05.904Z,38.10
2018-12-21T23:09:35.005Z,38.57
2018-12-21T23:12:03.976Z,38.40
2018-12-21T23:14:32.248Z,38.50
2018-12-21T23:17:00.398Z,37.87
2018-12-21T23:19:29.446Z,37.80
2018-12-21T23:21:57.608Z,37.93
2018-12-21T23:24:25.781Z,38.67
2018-12-21T23:26:53.958Z,37.87
2018-12-21T23:29:22.109Z,37.40
2018-12-21T23:31:50.273Z,37.93
2018-12-21T23:34:18.440Z,37.50
2018-12-21T23:36:46.668Z,37.60
2018-12-21T23:39:14.846Z,37.60
2018-12-21T23:41:43.009Z,37.27
2018-12-21T23:44:11.517Z,38.00
2018-12-21T23:46:39.688Z,37.57
2018-12-21T23:49:08.639Z,37.60
2018-12-21T23:51:36.784Z,37.90
2018-12-21T23:54:04.957Z,37.87
2018-12-21T23:56:33.134Z,38.13
2018-12-21T23:59:01.292Z,37.67
